Time;durP1;ratioP1;P1;durP2;ratioP2;P2;SDS_P1;SDS_P2;PMS_P1;PMS_P2;Temp;Humidity;BMP_temperature;BMP_pressure;BME280_temperature;BME280_humidity;BME280_pressure;Samples;Min_cycle;Max_cycle;Signal;HPM_P1;HPM_P2
2022/03/09 00:01:49;;;;;;;17.20;11.38;;;;;;;4.00;50.17;101960.78;5050099;28;20120;-69
2022/03/09 00:04:14;;;;;;;17.83;11.07;;;;;;;3.99;49.89;101959.13;5052335;28;20372;-70
2022/03/09 00:06:39;;;;;;;18.73;11.00;;;;;;;4.03;49.79;101957.78;5054420;28;20468;-71
2022/03/09 00:09:05;;;;;;;18.00;10.48;;;;;;;4.00;48.87;101956.28;5072336;28;20617;-73
2022/03/09 00:11:30;;;;;;;17.20;10.73;;;;;;;4.04;49.25;101965.66;5072496;28;20021;-69
2022/03/09 00:13:55;;;;;;;15.95;10.48;;;;;;;4.06;49.04;101965.53;5072246;28;20028;-72
2022/03/09 00:16:21;;;;;;;17.73;10.68;;;;;;;4.05;49.74;101962.00;5072426;28;20028;-70
2022/03/09 00:18:46;;;;;;;19.80;10.52;;;;;;;4.07;49.47;101969.88;5052503;28;20063;-71
2022/03/09 00:21:11;;;;;;;19.67;10.63;;;;;;;4.02;48.46;101970.34;5052062;28;20121;-74
2022/03/09 00:23:36;;;;;;;15.93;10.07;;;;;;;4.04;48.92;101968.34;5051933;28;20072;-70
2022/03/09 00:26:02;;;;;;;15.50;10.23;;;;;;;4.01;49.55;101968.66;5050842;28;20055;-70
2022/03/09 00:28:27;;;;;;;14.40;10.18;;;;;;;4.05;48.67;101970.03;5067438;28;20064;-74
2022/03/09 00:30:52;;;;;;;17.98;10.60;;;;;;;4.05;48.57;101970.03;5072099;28;20059;-70
2022/03/09 00:33:18;;;;;;;18.33;10.40;;;;;;;4.05;49.20;101972.72;5070870;28;20085;-72
2022/03/09 00:35:44;;;;;;;17.00;10.05;;;;;;;4.03;48.52;101976.53;5074637;28;20033;-73
2022/03/09 00:38:09;;;;;;;14.70;9.38;;;;;;;4.05;48.82;101975.41;5060647;28;20029;-74
2022/03/09 00:40:35;;;;;;;16.85;10.07;;;;;;;4.04;49.23;101973.72;5062106;28;20429;-71
2022/03/09 00:43:00;;;;;;;14.23;9.57;;;;;;;4.04;48.31;101971.03;5075938;28;20028;-75
2022/03/09 00:45:26;;;;;;;16.02;9.65;;;;;;;4.04;48.72;101968.34;5076288;28;20038;-73
2022/03/09 00:47:51;;;;;;;14.57;9.88;;;;;;;4.03;49.04;101965.81;5076265;28;20426;-69
2022/03/09 00:50:17;;;;;;;17.05;9.40;;;;;;;4.05;49.63;101964.69;5071322;28;20017;-71
2022/03/09 00:52:42;;;;;;;15.50;9.43;;;;;;;4.04;48.96;101973.72;5055799;28;20033;-72
2022/03/09 00:55:08;;;;;;;14.55;9.68;;;;;;;3.98;48.62;101968.97;5055813;28;20416;-70
2022/03/09 00:57:33;;;;;;;13.43;9.80;;;;;;;3.98;49.15;101973.50;5055983;28;20039;-74
2022/03/09 00:59:59;;;;;;;13.73;9.48;;;;;;;3.97;48.62;101972.66;5056520;28;20025;-72
2022/03/09 01:02:24;;;;;;;13.68;9.23;;;;;;;3.93;48.76;101971.28;5073714;28;20039;-70
2022/03/09 01:04:49;;;;;;;13.57;8.95;;;;;;;3.89;49.38;101964.53;5075699;28;20032;-71
2022/03/09 01:07:15;;;;;;;17.08;9.80;;;;;;;3.93;48.76;101973.97;5075598;28;20064;-72
2022/03/09 01:09:40;;;;;;;14.23;9.02;;;;;;;3.87;48.40;101967.38;5075447;28;20064;-70
2022/03/09 01:12:06;;;;;;;15.55;9.77;;;;;;;3.88;48.47;101974.41;5056724;28;20383;-72
2022/03/09 01:14:31;;;;;;;18.92;10.15;;;;;;;3.89;49.84;101969.91;5054352;28;20040;-74
2022/03/09 01:16:57;;;;;;;13.40;9.48;;;;;;;3.85;49.16;101968.50;5055334;28;20064;-71
2022/03/09 01:19:22;;;;;;;14.35;9.55;;;;;;;3.82;49.32;101967.00;5055554;28;20025;-71
2022/03/09 01:21:47;;;;;;;15.73;9.55;;;;;;;3.79;49.15;101964.63;5071280;28;20036;-73
2022/03/09 01:24:13;;;;;;;15.98;9.20;;;;;;;3.76;49.63;101970.28;5073860;28;20456;-73
2022/03/09 01:26:38;;;;;;;21.63;10.38;;;;;;;3.70;49.62;101961.03;5075717;28;20463;-71
2022/03/09 01:29:06;;;;;;;14.43;9.43;;;;;;;3.68;49.64;101963.03;5075096;28;20448;-74
2022/03/09 01:31:32;;;;;;;14.98;9.27;;;;;;;3.65;49.52;101963.31;5061706;28;20366;-71
2022/03/09 01:33:57;;;;;;;16.83;9.35;;;;;;;3.59;49.97;101969.25;5053611;28;20031;-72
2022/03/09 01:36:22;;;;;;;18.13;9.23;;;;;;;3.61;50.13;101969.13;5055640;28;20417;-72
2022/03/09 01:38:47;;;;;;;14.73;9.55;;;;;;;3.53;49.81;101964.53;5055022;28;20036;-72
2022/03/09 01:41:13;;;;;;;14.35;9.80;;;;;;;3.55;49.82;101967.91;5054889;28;20033;-69
2022/03/09 01:43:39;;;;;;;14.55;9.40;;;;;;;3.49;49.80;101969.34;5068368;28;20036;-75
2022/03/09 01:46:04;;;;;;;15.98;9.95;;;;;;;3.48;50.32;101961.47;5074085;28;20074;-69
2022/03/09 01:48:29;;;;;;;16.15;9.80;;;;;;;3.44;50.49;101960.06;5074618;28;20028;-73
2022/03/09 01:50:55;;;;;;;15.55;9.77;;;;;;;3.39;49.98;101959.69;5074958;28;20044;-71
2022/03/09 01:53:20;;;;;;;16.40;9.77;;;;;;;3.39;50.28;101962.38;5073346;28;20021;-74
2022/03/09 01:55:45;;;;;;;14.02;9.35;;;;;;;3.35;50.32;101956.47;5074911;28;20041;-72
2022/03/09 01:58:11;;;;;;;15.02;8.93;;;;;;;3.34;51.19;101955.63;5057017;28;20514;-70
2022/03/09 02:00:39;;;;;;;16.70;9.10;;;;;;;3.32;51.28;101951.41;5052429;28;20635;-73
2022/03/09 02:03:04;;;;;;;14.48;9.98;;;;;;;3.25;51.07;101945.00;5054605;28;20415;-71
2022/03/09 02:05:29;;;;;;;18.33;9.15;;;;;;;3.21;51.48;101955.13;5054581;28;20029;-73
2022/03/09 02:10:39;;;;;;;15.63;9.85;;;;;;;3.09;51.32;101946.47;5054345;28;20048;-74
2022/03/09 02:13:06;;;;;;;16.65;10.18;;;;;;;3.07;51.60;101950.31;5072177;28;20032;-71
2022/03/09 02:15:32;;;;;;;15.38;9.40;;;;;;;3.06;51.34;101956.63;5074509;28;20035;-70
2022/03/09 02:17:59;;;;;;;16.17;9.50;;;;;;;3.05;51.52;101955.81;5074247;28;20111;-70
2022/03/09 02:20:25;;;;;;;17.50;10.18;;;;;;;3.06;51.51;101964.66;5074427;28;20063;-73
2022/03/09 02:22:53;;;;;;;14.35;9.02;;;;;;;3.03;50.79;101962.28;5074017;28;20108;-71
2022/03/09 02:25:19;;;;;;;18.92;9.20;;;;;;;3.00;51.66;101958.91;5071365;28;20032;-70
2022/03/09 02:27:45;;;;;;;16.25;9.40;;;;;;;2.99;50.82;101964.41;5052994;28;20094;-71
2022/03/09 02:30:18;;;;;;;14.55;9.80;;;;;;;2.98;51.73;101963.56;5053683;28;20029;-73
2022/03/09 02:32:49;;;;;;;18.77;9.63;;;;;;;2.96;51.51;101957.53;5054538;28;20048;-70
2022/03/09 02:35:17;;;;;;;20.73;9.35;;;;;;;2.94;51.16;101958.66;5053709;28;20087;-73
2022/03/09 02:37:42;;;;;;;14.65;9.75;;;;;;;2.89;51.18;101953.75;5054045;28;20033;-70
2022/03/09 02:40:13;;;;;;;14.60;9.65;;;;;;;2.89;51.66;101961.75;5056289;28;20365;-73
2022/03/09 02:42:39;;;;;;;15.00;9.95;;;;;;;2.84;51.69;101951.50;5073925;28;20115;-72
2022/03/09 02:45:05;;;;;;;15.35;10.05;;;;;;;2.82;52.43;101942.81;5072080;28;20112;-71
2022/03/09 02:47:30;;;;;;;17.77;9.27;;;;;;;2.82;51.89;101933.94;5074088;28;20032;-70
2022/03/09 02:49:55;;;;;;;15.48;9.32;;;;;;;2.77;51.97;101933.53;5074060;28;20036;-72
2022/03/09 02:52:20;;;;;;;17.40;10.43;;;;;;;2.71;52.27;101926.13;5073488;28;20422;-73
2022/03/09 02:54:46;;;;;;;16.00;9.50;;;;;;;2.73;51.72;101930.28;5071742;28;20036;-73
2022/03/09 02:57:11;;;;;;;16.92;9.90;;;;;;;2.70;52.36;101927.91;5071819;28;20036;-71
2022/03/09 02:59:36;;;;;;;17.35;9.90;;;;;;;2.69;52.20;101934.28;5073365;28;20108;-74
2022/03/09 03:02:02;;;;;;;15.80;10.45;;;;;;;2.67;52.52;101933.56;5069598;28;20033;-70
2022/03/09 03:04:28;;;;;;;18.45;9.82;;;;;;;2.67;52.00;101930.88;5073205;28;20029;-72
2022/03/09 03:06:53;;;;;;;15.07;9.38;;;;;;;2.68;52.07;101937.94;5073711;28;20111;-70
2022/03/09 03:09:18;;;;;;;16.30;10.10;;;;;;;2.63;52.59;101933.03;5073210;28;20032;-70
2022/03/09 03:11:44;;;;;;;13.40;9.07;;;;;;;2.60;52.58;101933.31;5060559;28;20078;-71
2022/03/09 03:14:09;;;;;;;16.10;9.73;;;;;;;2.55;52.47;101932.91;5053424;28;20555;-69
2022/03/09 03:16:34;;;;;;;17.08;10.02;;;;;;;2.56;52.54;101939.09;5052034;28;20027;-68
2022/03/09 03:19:00;;;;;;;13.95;9.20;;;;;;;2.51;53.21;101942.22;5055188;28;20020;-72
2022/03/09 03:21:26;;;;;;;13.98;10.02;;;;;;;2.45;53.55;101942.78;5072640;28;20059;-74
2022/03/09 03:23:51;;;;;;;16.02;10.13;;;;;;;2.41;53.32;101941.38;5072790;28;20052;-74
2022/03/09 03:26:16;;;;;;;16.33;10.20;;;;;;;2.36;53.29;101936.47;5071958;28;20029;-71
2022/03/09 03:28:41;;;;;;;16.85;10.13;;;;;;;2.28;53.58;101931.84;5071718;28;20031;-76
2022/03/09 03:31:07;;;;;;;15.45;10.10;;;;;;;2.19;53.59;101932.72;5071474;28;20082;-70
2022/03/09 03:33:32;;;;;;;15.73;9.90;;;;;;;2.21;53.46;101933.41;5072704;28;20033;-75
2022/03/09 03:35:57;;;;;;;15.35;10.27;;;;;;;2.15;53.61;101933.16;5072653;28;20032;-74
2022/03/09 03:38:23;;;;;;;16.67;10.45;;;;;;;2.13;53.92;101933.28;5071319;28;20066;-68
2022/03/09 03:40:48;;;;;;;18.30;10.68;;;;;;;2.10;54.46;101933.59;5071980;28;20056;-69
2022/03/09 03:43:13;;;;;;;18.27;10.65;;;;;;;2.10;54.42;101929.06;5072183;28;20025;-70
2022/03/09 03:45:39;;;;;;;17.23;10.68;;;;;;;2.08;53.75;101930.19;5072867;28;20413;-72
2022/03/09 03:48:05;;;;;;;17.42;10.50;;;;;;;2.00;54.12;101933.56;5072283;28;20032;-70
2022/03/09 03:50:31;;;;;;;15.98;9.82;;;;;;;2.00;54.01;101928.22;5071041;28;20029;-70
2022/03/09 03:52:56;;;;;;;19.05;10.27;;;;;;;1.94;54.08;101934.97;5071434;28;20032;-70
2022/03/09 03:55:21;;;;;;;18.70;10.73;;;;;;;1.93;54.93;101933.31;5064745;28;20025;-73
2022/03/09 03:57:46;;;;;;;15.93;10.15;;;;;;;1.95;54.71;101941.19;5052941;28;20029;-72
2022/03/09 04:00:12;;;;;;;15.85;9.85;;;;;;;1.91;54.65;101940.59;5052357;28;20475;-71
2022/03/09 04:02:38;;;;;;;19.95;10.20;;;;;;;1.90;54.11;101941.59;5050268;28;20086;-72
2022/03/09 04:05:05;;;;;;;17.83;9.70;;;;;;;1.89;54.48;101945.25;5052390;28;20528;-69
2022/03/09 04:07:31;;;;;;;18.48;10.38;;;;;;;1.85;54.27;101943.84;5052497;28;20120;-70
2022/03/09 04:09:56;;;;;;;16.83;10.82;;;;;;;1.82;54.53;101940.63;5052903;28;20029;-70
2022/03/09 04:12:23;;;;;;;17.85;10.18;;;;;;;1.79;54.60;101940.91;5072310;28;20111;-69
2022/03/09 04:14:49;;;;;;;17.55;11.25;;;;;;;1.80;54.85;101948.75;5072544;28;20090;-72
2022/03/09 04:17:14;;;;;;;16.60;10.35;;;;;;;1.83;55.03;101953.81;5072233;28;20040;-69
2022/03/09 04:19:39;;;;;;;16.05;10.23;;;;;;;1.84;54.70;101954.66;5072414;28;20032;-72
2022/03/09 04:22:05;;;;;;;20.55;10.15;;;;;;;1.82;54.50;101940.63;5072459;28;20063;-74
2022/03/09 04:24:30;;;;;;;16.38;10.38;;;;;;;1.76;54.43;101942.84;5063749;28;20036;-70
2022/03/09 04:26:56;;;;;;;14.88;9.40;;;;;;;1.75;54.82;101930.50;5052078;28;20424;-69
2022/03/09 04:29:21;;;;;;;20.88;10.18;;;;;;;1.77;54.50;101933.88;5052115;28;20037;-71
2022/03/09 04:31:46;;;;;;;14.93;9.70;;;;;;;1.77;54.51;101933.88;5052249;28;20036;-72
2022/03/09 04:34:11;;;;;;;17.27;9.98;;;;;;;1.74;55.12;101934.16;5052364;28;20029;-72
2022/03/09 04:36:40;;;;;;;15.40;10.20;;;;;;;1.71;54.86;101936.25;5052303;28;20072;-70
2022/03/09 04:39:06;;;;;;;15.85;9.98;;;;;;;1.73;54.95;101934.28;5058678;28;20108;-68
2022/03/09 04:41:31;;;;;;;15.38;10.10;;;;;;;1.70;55.33;101929.22;5071784;28;20162;-72
2022/03/09 04:43:57;;;;;;;15.02;9.93;;;;;;;1.72;55.17;101933.44;5070788;28;20353;-71
2022/03/09 04:46:22;;;;;;;17.48;10.68;;;;;;;1.74;54.28;101933.31;5071750;28;20483;-69
2022/03/09 04:48:51;;;;;;;16.05;10.10;;;;;;;1.75;54.24;101930.50;5070818;28;20040;-73
2022/03/09 04:51:17;;;;;;;16.08;10.10;;;;;;;1.78;54.67;101932.03;5071918;28;20035;-71
2022/03/09 04:53:42;;;;;;;25.92;10.63;;;;;;;1.78;54.59;101929.34;5071648;28;20037;-72
2022/03/09 04:56:07;;;;;;;18.05;10.68;;;;;;;1.81;54.13;101928.25;5071157;28;20059;-72
2022/03/09 04:58:33;;;;;;;16.73;9.45;;;;;;;1.84;53.30;101922.63;5070710;28;20052;-70
2022/03/09 05:00:58;;;;;;;18.88;10.20;;;;;;;1.82;54.97;101925.44;5069589;28;20078;-72
2022/03/09 05:03:24;;;;;;;17.67;10.45;;;;;;;1.84;54.56;101928.81;5071717;28;20116;-72
2022/03/09 05:05:49;;;;;;;16.63;9.25;;;;;;;1.84;53.80;101926.16;5071681;28;20025;-68
2022/03/09 05:08:17;;;;;;;15.15;9.60;;;;;;;1.82;54.22;101925.44;5071505;28;20032;-69
2022/03/09 05:10:55;;;;;;;15.30;9.48;;;;;;;1.86;54.71;101934.03;5070248;28;20035;-73
2022/03/09 05:13:21;;;;;;;15.27;9.60;;;;;;;1.82;54.27;101937.94;5071803;28;20028;-70
2022/03/09 05:15:47;;;;;;;16.02;9.95;;;;;;;1.81;54.42;101931.75;5071947;28;20033;-71
2022/03/09 05:18:12;;;;;;;17.83;10.35;;;;;;;1.80;53.79;101935.41;5071585;28;20032;-71
2022/03/09 05:20:38;;;;;;;17.30;9.52;;;;;;;1.79;54.34;101936.38;5071563;28;20025;-72
2022/03/09 05:23:04;;;;;;;18.13;9.30;;;;;;;1.75;54.38;101926.97;5074670;28;20456;-71
2022/03/09 05:25:30;;;;;;;15.38;9.70;;;;;;;1.72;54.81;101929.91;5064696;28;20505;-71
2022/03/09 05:27:55;;;;;;;16.90;10.60;;;;;;;1.68;54.62;101936.53;5055100;28;20064;-72
2022/03/09 05:30:20;;;;;;;15.93;10.50;;;;;;;1.65;54.99;101934.16;5055416;28;20086;-70
2022/03/09 05:32:45;;;;;;;14.40;9.80;;;;;;;1.61;54.77;101938.06;5054972;28;20044;-69
2022/03/09 05:35:11;;;;;;;22.05;12.02;;;;;;;1.58;54.75;101940.03;5055066;28;20032;-69
2022/03/09 05:37:37;;;;;;;23.67;14.95;;;;;;;1.52;54.61;101943.25;5055481;28;20052;-70
2022/03/09 05:40:03;;;;;;;25.55;15.52;;;;;;;1.50;55.00;101939.88;5061966;28;20036;-70
2022/03/09 05:42:29;;;;;;;22.65;14.05;;;;;;;1.48;54.97;101944.53;5073444;28;20115;-72
2022/03/09 05:44:54;;;;;;;21.50;13.32;;;;;;;1.47;54.82;101945.50;5075080;28;20464;-70
2022/03/09 05:47:19;;;;;;;25.25;13.45;;;;;;;1.48;55.06;101941.84;5074798;28;20078;-71
2022/03/09 05:49:44;;;;;;;19.92;12.95;;;;;;;1.43;55.80;101941.41;5074757;28;20548;-70
2022/03/09 05:52:10;;;;;;;22.40;13.85;;;;;;;1.47;55.54;101942.84;5072498;28;20027;-71
2022/03/09 05:54:35;;;;;;;25.48;16.00;;;;;;;1.47;55.93;101952.66;5053386;28;20033;-70
2022/03/09 05:57:00;;;;;;;22.85;13.20;;;;;;;1.41;55.33;101954.88;5054881;28;20362;-67
2022/03/09 05:59:25;;;;;;;20.70;12.10;;;;;;;1.40;55.72;101963.88;5054577;28;20025;-71
2022/03/09 06:01:51;;;;;;;18.25;11.13;;;;;;;1.39;55.27;101962.19;5052078;28;20045;-73
2022/03/09 06:04:16;;;;;;;17.67;10.82;;;;;;;1.40;55.73;101969.22;5054457;28;20029;-68
2022/03/09 06:06:41;;;;;;;14.77;10.43;;;;;;;1.37;56.42;101968.63;5069635;28;20507;-70
2022/03/09 06:09:06;;;;;;;15.95;10.20;;;;;;;1.37;55.52;101972.13;5054623;28;20029;-73
2022/03/09 06:11:32;;;;;;;16.20;10.27;;;;;;;1.35;55.53;101978.59;5054279;28;20037;-68
2022/03/09 06:13:57;;;;;;;19.20;10.40;;;;;;;1.42;55.05;101979.75;5053248;28;20033;-73
2022/03/09 06:16:22;;;;;;;15.98;10.27;;;;;;;1.45;55.07;101976.81;5052929;28;20389;-69
2022/03/09 06:18:49;;;;;;;14.93;10.10;;;;;;;1.44;55.35;101983.13;5054577;28;20032;-69
2022/03/09 06:21:14;;;;;;;16.13;10.15;;;;;;;1.40;55.61;101979.88;5056430;28;20040;-69
2022/03/09 06:23:40;;;;;;;14.45;9.60;;;;;;;1.43;55.62;101978.75;5074268;28;20036;-71
2022/03/09 06:26:06;;;;;;;15.15;9.93;;;;;;;1.43;55.98;101978.75;5073626;28;20048;-72
2022/03/09 06:28:31;;;;;;;16.60;10.50;;;;;;;1.42;55.88;101982.41;5072857;28;20028;-70
2022/03/09 06:30:57;;;;;;;18.50;10.05;;;;;;;1.41;55.66;101980.72;5074172;28;20401;-73
2022/03/09 06:33:23;;;;;;;19.23;10.35;;;;;;;1.45;55.90;101981.28;5073281;28;20170;-73
2022/03/09 06:35:48;;;;;;;17.58;10.48;;;;;;;1.46;55.66;101977.66;5073777;28;20040;-72
2022/03/09 06:38:13;;;;;;;15.70;10.27;;;;;;;1.39;55.64;101982.69;5074127;28;20480;-69
2022/03/09 06:40:39;;;;;;;17.75;10.65;;;;;;;1.45;56.14;101987.47;5059254;28;20033;-71
2022/03/09 06:43:04;;;;;;;65.32;28.63;;;;;;;1.46;55.69;101990.97;5053603;28;20116;-70
2022/03/09 06:45:29;;;;;;;65.80;25.80;;;;;;;1.51;56.04;101996.75;5053526;28;20112;-70
2022/03/09 06:47:55;;;;;;;28.27;14.10;;;;;;;1.49;55.07;102010.22;5052689;28;20048;-71
2022/03/09 06:50:20;;;;;;;31.90;15.13;;;;;;;1.50;55.93;102011.91;5052350;28;20033;-69
2022/03/09 06:52:46;;;;;;;32.53;15.38;;;;;;;1.52;55.78;102004.59;5053508;28;20033;-73
2022/03/09 06:55:12;;;;;;;50.58;20.00;;;;;;;1.55;55.69;102008.81;5065629;28;20375;-71
2022/03/09 06:57:38;;;;;;;58.80;22.65;;;;;;;1.57;56.15;102018.41;5073429;28;20032;-71
2022/03/09 07:00:06;;;;;;;40.15;22.67;;;;;;;1.63;56.38;102022.34;5073321;28;20456;-75
2022/03/09 07:02:32;;;;;;;30.58;17.65;;;;;;;1.66;56.02;102015.88;5069437;28;20090;-71
2022/03/09 07:04:58;;;;;;;32.95;22.75;;;;;;;1.70;55.86;102022.63;5073154;28;20033;-74
2022/03/09 07:07:23;;;;;;;22.35;14.40;;;;;;;1.72;56.10;102024.19;5073175;28;20120;-72
2022/03/09 07:09:48;;;;;;;17.95;12.30;;;;;;;1.80;55.67;102028.81;5071331;28;20028;-73
2022/03/09 07:12:13;;;;;;;24.73;12.27;;;;;;;1.85;55.33;102037.25;5073415;28;20024;-71
2022/03/09 07:14:39;;;;;;;17.40;10.88;;;;;;;1.87;55.94;102029.97;5073329;28;20028;-71
2022/03/09 07:17:04;;;;;;;17.58;11.00;;;;;;;1.92;55.47;102032.22;5073180;28;20031;-71
2022/03/09 07:19:29;;;;;;;18.90;11.60;;;;;;;1.95;56.15;102035.44;5072703;28;20024;-74
2022/03/09 07:21:54;;;;;;;16.85;10.48;;;;;;;2.01;55.06;102030.53;5071948;28;20029;-72
2022/03/09 07:24:21;;;;;;;17.60;11.30;;;;;;;2.07;55.97;102032.66;5072278;28;20028;-72
2022/03/09 07:26:46;;;;;;;17.33;11.15;;;;;;;2.15;55.38;102037.28;5053067;28;20029;-68
2022/03/09 07:29:11;;;;;;;19.42;10.82;;;;;;;2.18;55.47;102026.34;5053108;28;20518;-70
2022/03/09 07:31:38;;;;;;;21.50;11.15;;;;;;;2.28;55.02;102032.50;5052813;28;20032;-74
2022/03/09 07:34:03;;;;;;;20.38;11.18;;;;;;;2.34;54.71;102025.75;5051415;28;20021;-76
2022/03/09 07:36:29;;;;;;;22.00;11.57;;;;;;;2.39;54.93;102029.69;5052807;28;20108;-71
2022/03/09 07:38:54;;;;;;;19.73;11.55;;;;;;;2.50;55.32;102033.19;5053029;28;20041;-72
2022/03/09 07:41:19;;;;;;;19.65;10.98;;;;;;;2.57;54.17;102027.13;5070240;28;20388;-76
2022/03/09 07:43:45;;;;;;;19.85;11.05;;;;;;;2.64;54.50;102022.03;5072513;28;20033;-72
2022/03/09 07:46:10;;;;;;;17.83;10.65;;;;;;;2.69;54.63;102013.59;5072395;28;20516;-72
2022/03/09 07:48:35;;;;;;;19.98;10.48;;;;;;;2.78;53.88;102020.78;5072212;28;20032;-79
2022/03/09 07:51:01;;;;;;;17.15;10.68;;;;;;;2.87;52.86;102017.22;5023032;28;20049;-75
2022/03/09 07:53:26;;;;;;;21.23;10.85;;;;;;;2.95;53.25;102028.03;5012583;28;20359;-74
2022/03/09 07:55:51;;;;;;;22.88;11.18;;;;;;;3.05;52.14;102028.00;5029704;28;20527;-72
2022/03/09 07:58:17;;;;;;;17.70;10.68;;;;;;;3.10;52.21;102023.03;5032699;28;20044;-75
2022/03/09 08:00:42;;;;;;;18.88;11.07;;;;;;;3.19;52.11;102016.81;5030095;28;20706;-74
2022/03/09 08:03:07;;;;;;;16.00;10.13;;;;;;;3.27;51.43;102032.13;5032785;28;20029;-72
2022/03/09 08:05:34;;;;;;;20.67;11.05;;;;;;;3.35;50.81;102020.69;5032267;28;20132;-73
2022/03/09 08:07:59;;;;;;;18.42;9.70;;;;;;;3.42;51.46;102028.97;5031550;28;20132;-74
2022/03/09 08:10:25;;;;;;;17.27;10.10;;;;;;;3.50;50.36;102029.91;5016069;28;20037;-75
2022/03/09 08:12:50;;;;;;;19.60;10.73;;;;;;;3.57;50.55;102027.47;5012397;28;20037;-76
2022/03/09 08:15:15;;;;;;;20.30;10.63;;;;;;;3.65;50.07;102042.78;5011528;28;20038;-76
2022/03/09 08:17:41;;;;;;;23.35;10.90;;;;;;;3.73;49.26;102046.41;5012648;28;20026;-75
2022/03/09 08:20:07;;;;;;;16.25;10.02;;;;;;;3.77;50.75;102052.28;5011600;28;20412;-76
2022/03/09 08:22:33;;;;;;;21.83;10.93;;;;;;;3.86;49.43;102053.22;5012436;28;20062;-73
2022/03/09 08:24:58;;;;;;;19.25;10.98;;;;;;;3.96;48.52;102050.50;5025340;28;20061;-75
2022/03/09 08:27:24;;;;;;;20.52;10.50;;;;;;;4.04;48.74;102048.72;5032179;28;20037;-74
2022/03/09 08:29:50;;;;;;;22.20;11.00;;;;;;;4.12;48.45;102055.16;5032416;28;20033;-72
2022/03/09 08:32:17;;;;;;;22.77;10.80;;;;;;;4.21;48.48;102048.88;5032375;28;20120;-76
2022/03/09 08:34:42;;;;;;;17.00;10.50;;;;;;;4.27;48.05;102048.25;5032470;28;20044;-75
2022/03/09 08:37:08;;;;;;;20.02;11.73;;;;;;;4.35;48.06;102051.03;5031137;28;20029;-77
2022/03/09 08:39:33;;;;;;;20.95;10.57;;;;;;;4.39;47.88;102052.41;5029846;28;20091;-73
2022/03/09 08:41:58;;;;;;;21.23;11.63;;;;;;;4.46;48.02;102051.78;5032319;28;20095;-76
2022/03/09 08:44:24;;;;;;;17.27;10.85;;;;;;;4.53;47.29;102058.19;5032000;28;20056;-72
2022/03/09 08:46:53;;;;;;;22.23;9.88;;;;;;;4.66;47.65;102060.47;5030296;28;20033;-73
2022/03/09 08:49:18;;;;;;;19.60;10.73;;;;;;;4.66;47.68;102058.63;5026428;28;20034;-72
2022/03/09 08:51:44;;;;;;;17.10;10.63;;;;;;;4.73;47.06;102059.69;5024778;28;20385;-73
2022/03/09 08:54:09;;;;;;;20.13;10.98;;;;;;;4.83;47.84;102053.38;5031948;28;20026;-72
2022/03/09 08:56:34;;;;;;;18.50;10.18;;;;;;;4.99;49.11;102058.84;5033827;28;20233;-74
2022/03/09 08:59:00;;;;;;;54.03;12.98;;;;;;;5.06;48.15;102057.22;5036034;28;20033;-70
2022/03/09 09:01:25;;;;;;;45.13;12.30;;;;;;;5.18;51.10;102059.63;5033241;28;20400;-70
2022/03/09 09:03:50;;;;;;;19.60;10.75;;;;;;;5.27;48.79;102058.69;5035726;28;20112;-73
2022/03/09 09:06:16;;;;;;;19.88;11.70;;;;;;;5.36;51.10;102064.91;5035708;28;20033;-73
2022/03/09 09:08:41;;;;;;;18.70;11.48;;;;;;;5.49;48.39;102058.09;5025298;28;20029;-75
2022/03/09 09:11:07;;;;;;;19.48;11.85;;;;;;;5.61;53.27;102058.66;5024840;28;20539;-75
2022/03/09 09:13:32;;;;;;;18.08;11.13;;;;;;;5.72;50.25;102060.19;5034271;28;20030;-77
2022/03/09 09:15:57;;;;;;;18.65;11.88;;;;;;;5.83;48.30;102056.38;5035150;28;20056;-79
2022/03/09 09:18:25;;;;;;;24.20;11.68;;;;;;;5.88;48.99;102053.19;5034696;28;20037;-77
2022/03/09 09:20:52;;;;;;;19.08;11.52;;;;;;;5.95;48.69;102051.50;5033508;28;20021;-72
2022/03/09 09:23:18;;;;;;;26.38;12.25;;;;;;;6.02;48.44;102052.56;5034370;28;20083;-80
2022/03/09 09:25:44;;;;;;;20.10;11.73;;;;;;;6.08;47.71;102049.22;5034865;28;20025;-78
2022/03/09 09:28:10;;;;;;;18.50;11.13;;;;;;;6.14;46.97;102047.72;5033902;28;20030;-79
2022/03/09 09:30:35;;;;;;;26.20;13.23;;;;;;;6.18;46.48;102049.09;5031364;28;20042;-74
2022/03/09 09:33:01;;;;;;;22.05;12.82;;;;;;;6.24;46.52;102047.59;5015284;28;20096;-76
2022/03/09 09:35:26;;;;;;;27.13;12.88;;;;;;;6.29;47.38;102045.22;5014964;28;20034;-76
2022/03/09 09:37:52;;;;;;;23.95;11.77;;;;;;;6.38;46.36;102049.59;5013448;28;20061;-75
2022/03/09 09:40:18;;;;;;;24.98;12.40;;;;;;;6.41;46.83;102051.94;5015071;28;20089;-74
2022/03/09 09:42:43;;;;;;;20.88;12.05;;;;;;;6.47;46.70;102059.34;5025212;28;20093;-75
2022/03/09 09:45:09;;;;;;;22.77;12.98;;;;;;;6.51;48.70;102047.25;5015083;28;20480;-77
2022/03/09 09:47:35;;;;;;;19.45;12.55;;;;;;;6.55;47.20;102053.13;5020525;28;20521;-78
2022/03/09 09:50:02;;;;;;;20.58;12.23;;;;;;;6.60;46.22;102053.47;5013528;28;20041;-79
2022/03/09 09:52:29;;;;;;;22.10;12.88;;;;;;;6.68;47.45;102055.31;5015276;28;20638;-77
2022/03/09 09:55:02;;;;;;;21.83;12.77;;;;;;;6.74;47.70;102054.63;5014624;28;20621;-77
2022/03/09 09:57:34;;;;;;;20.63;12.48;;;;;;;6.83;46.73;102052.78;5013013;28;20382;-79
2022/03/09 10:00:02;;;;;;;21.02;12.80;;;;;;;6.87;47.08;102048.72;5013359;28;20026;-75
2022/03/09 10:02:30;;;;;;;25.27;13.63;;;;;;;6.98;46.26;102050.22;5010325;28;20041;-77
2022/03/09 10:04:56;;;;;;;22.00;14.60;;;;;;;7.06;46.10;102051.03;5013330;28;20033;-75
2022/03/09 10:07:21;;;;;;;23.90;13.05;;;;;;;7.16;46.58;102053.53;5013592;28;20037;-76
2022/03/09 10:09:46;;;;;;;25.00;13.45;;;;;;;7.24;47.20;102052.66;5014135;28;20069;-73
2022/03/09 10:12:13;;;;;;;29.33;14.75;;;;;;;7.26;46.89;102043.41;5013197;28;20112;-74
2022/03/09 10:14:53;;;;;;;23.02;13.95;;;;;;;7.36;46.66;102048.59;4997749;28;20057;-76
2022/03/09 10:17:20;;;;;;;22.98;14.55;;;;;;;7.42;44.91;102041.66;5014734;28;20041;-75
2022/03/09 10:19:50;;;;;;;25.90;14.20;;;;;;;7.50;45.86;102044.31;5013235;28;20123;-70
2022/03/09 10:22:23;;;;;;;25.88;14.00;;;;;;;7.59;45.68;102048.66;5013361;28;20081;-72
2022/03/09 10:24:48;;;;;;;30.20;15.23;;;;;;;7.68;45.84;102035.16;5016813;28;20473;-74
2022/03/09 10:27:32;;;;;;;25.33;14.20;;;;;;;7.77;46.80;102037.59;5034466;28;20032;-75
2022/03/09 10:29:57;;;;;;;24.10;13.82;;;;;;;7.90;46.16;102026.25;5034057;28;20030;-74
2022/03/09 10:32:40;;;;;;;24.23;14.93;;;;;;;8.01;45.44;102029.56;5034375;28;20030;-72
2022/03/09 10:35:06;;;;;;;25.52;15.02;;;;;;;8.09;45.46;102022.25;5034095;28;20056;-73
2022/03/09 10:37:38;;;;;;;24.73;14.68;;;;;;;8.19;44.39;102027.41;5034074;28;20489;-72
2022/03/09 10:40:16;;;;;;;23.83;14.30;;;;;;;8.31;45.35;102028.66;5027946;28;20503;-74
2022/03/09 10:42:41;;;;;;;24.95;14.55;;;;;;;8.42;46.10;102034.63;5012735;28;20080;-74
2022/03/09 10:45:08;;;;;;;26.60;15.18;;;;;;;8.47;43.95;102029.56;5014358;28;20472;-75
2022/03/09 10:47:37;;;;;;;22.35;14.50;;;;;;;8.53;44.86;102031.56;5014313;28;20123;-74
2022/03/09 10:50:33;;;;;;;22.85;14.50;;;;;;;8.58;44.18;102026.44;5017463;28;20036;-77
2022/03/09 10:53:01;;;;;;;24.98;14.38;;;;;;;8.66;44.20;102031.75;5017911;28;20030;-75
2022/03/09 10:55:31;;;;;;;28.15;15.18;;;;;;;8.77;45.50;102032.31;5017148;28;20511;-75
2022/03/09 10:58:18;;;;;;;25.50;14.88;;;;;;;8.87;44.71;102036.44;5033836;28;20029;-74
2022/03/09 11:00:52;;;;;;;28.40;15.27;;;;;;;8.98;44.30;102027.06;5015582;28;20225;-72
2022/03/09 11:03:25;;;;;;;27.55;16.42;;;;;;;9.11;42.96;102030.97;5014131;28;20454;-73
2022/03/09 11:05:53;;;;;;;32.97;16.23;;;;;;;9.19;42.96;102034.41;5020896;28;20061;-71
2022/03/09 11:08:20;;;;;;;30.48;15.48;;;;;;;9.30;43.80;102027.72;5020103;28;20068;-73
2022/03/09 11:10:47;;;;;;;28.23;16.15;;;;;;;9.38;44.05;102029.47;5013653;28;20040;-77
2022/03/09 11:13:14;;;;;;;24.95;16.10;;;;;;;9.47;44.60;102024.81;5014325;28;20064;-75
2022/03/09 11:15:41;;;;;;;26.17;16.17;;;;;;;9.53;43.15;102024.88;5019877;28;20037;-76
2022/03/09 11:18:07;;;;;;;26.02;15.40;;;;;;;9.63;43.72;102021.88;5029496;28;20108;-77